createdAt,value
2022-12-17T00:02:34.943Z,99474.34
2022-12-17T00:05:20.233Z,99470.94
2022-12-17T00:08:05.057Z,99472.38
2022-12-17T00:10:49.752Z,99475.03
2022-12-17T00:13:41.540Z,99469.19
2022-12-17T00:16:26.990Z,99469.97
2022-12-17T00:19:12.117Z,99465.34
2022-12-17T00:21:56.947Z,99458.06
2022-12-17T00:24:42.240Z,99460.25
2022-12-17T00:27:26.930Z,99467.09
2022-12-17T00:30:11.813Z,99475.59
2022-12-17T00:32:57.107Z,99482.03
2022-12-17T00:35:42.047Z,99489.66
2022-12-17T00:38:33.467Z,99492.13
2022-12-17T00:41:18.400Z,99498.25
2022-12-17T00:44:03.379Z,99495.47
2022-12-17T00:46:48.749Z,99484.38
2022-12-17T00:49:33.939Z,99485.25
2022-12-17T00:52:19.844Z,99482.03
2022-12-17T00:55:04.644Z,99485.28
2022-12-17T00:57:49.451Z,99468.38
2022-12-17T01:00:34.788Z,99474.03
2022-12-17T01:03:29.068Z,99476.66
2022-12-17T01:06:14.341Z,99476.72
2022-12-17T01:08:59.160Z,99476.00
2022-12-17T01:11:44.493Z,99479.69
2022-12-17T01:14:29.281Z,99472.59
2022-12-17T01:17:14.151Z,99486.13
2022-12-17T01:19:59.078Z,99481.63
2022-12-17T01:22:44.472Z,99477.75
2022-12-17T01:25:29.389Z,99480.56
2022-12-17T01:28:14.395Z,99485.81
2022-12-17T01:30:59.198Z,99487.38
2022-12-17T01:33:44.524Z,99501.53
2022-12-17T01:36:29.777Z,99514.25
2022-12-17T01:39:15.316Z,99522.69
2022-12-17T01:42:00.637Z,99537.03
2022-12-17T01:44:57.928Z,99543.94
2022-12-17T01:47:45.361Z,99552.94
2022-12-17T01:50:33.158Z,99557.91
2022-12-17T01:53:21.580Z,99559.56
2022-12-17T01:56:07.600Z,99558.31
2022-12-17T01:58:54.400Z,99555.28
2022-12-17T02:01:40.409Z,99544.13
2022-12-17T02:04:27.666Z,99539.28
2022-12-17T02:07:23.467Z,99535.97
2022-12-17T02:10:21.556Z,99528.66
2022-12-17T02:13:10.927Z,99518.53
2022-12-17T02:16:02.735Z,99527.16
2022-12-17T02:19:01.553Z,99531.84
2022-12-17T02:21:48.328Z,99532.19
2022-12-17T02:24:52.779Z,99530.28
2022-12-17T02:27:38.237Z,99522.03
2022-12-17T02:30:26.482Z,99524.88
2022-12-17T02:33:12.746Z,99513.28
2022-12-17T02:36:03.192Z,99514.28
2022-12-17T02:38:50.191Z,99509.50
2022-12-17T02:41:43.762Z,99501.06
2022-12-17T02:44:31.826Z,99517.66
2022-12-17T02:47:18.117Z,99515.75
2022-12-17T02:50:03.630Z,99505.91
2022-12-17T02:52:52.581Z,99510.56
2022-12-17T02:55:38.001Z,99500.84
2022-12-17T02:58:23.089Z,99496.97
2022-12-17T03:01:07.841Z,99509.09
2022-12-17T03:03:53.046Z,99513.09
2022-12-17T03:06:37.813Z,99514.84
2022-12-17T03:09:23.259Z,99517.28
2022-12-17T03:12:08.711Z,99503.06
2022-12-17T03:14:54.087Z,99499.88
2022-12-17T03:17:44.090Z,99499.59
2022-12-17T03:20:29.432Z,99496.78
2022-12-17T03:23:31.586Z,99490.69
2022-12-17T03:26:18.512Z,99485.66
2022-12-17T03:29:03.893Z,99485.25
2022-12-17T03:31:49.289Z,99482.66
2022-12-17T03:34:34.110Z,99486.09
2022-12-17T03:37:19.396Z,99501.88
2022-12-17T03:40:04.486Z,99500.41
2022-12-17T03:42:49.267Z,99502.81
2022-12-17T03:45:34.692Z,99507.22
2022-12-17T03:48:24.656Z,99521.19
2022-12-17T03:51:11.790Z,99514.44
2022-12-17T03:53:57.011Z,99515.84
2022-12-17T03:56:42.446Z,99508.69
2022-12-17T03:59:28.081Z,99506.06
2022-12-17T04:02:13.671Z,99503.53
2022-12-17T04:04:58.648Z,99503.84
2022-12-17T04:07:43.504Z,99499.19
2022-12-17T04:10:29.170Z,99488.75
2022-12-17T04:13:14.471Z,99481.97
2022-12-17T04:15:59.957Z,99481.94
2022-12-17T04:18:45.071Z,99479.03
2022-12-17T04:21:29.935Z,99482.34
2022-12-17T04:24:15.256Z,99479.41
2022-12-17T04:27:00.632Z,99476.25
2022-12-17T04:29:45.707Z,99482.63
2022-12-17T04:32:35.006Z,99474.44
2022-12-17T04:35:20.773Z,99472.06
2022-12-17T04:38:06.312Z,99483.81
2022-12-17T04:40:51.367Z,99494.09
2022-12-17T04:43:36.884Z,99488.69
2022-12-17T04:46:22.119Z,99495.59
2022-12-17T04:49:07.254Z,99505.53
2022-12-17T04:51:52.205Z,99515.56
2022-12-17T04:54:37.344Z,99505.53
2022-12-17T04:57:22.616Z,99521.59
2022-12-17T05:00:07.915Z,99523.06
2022-12-17T05:02:52.932Z,99529.09
2022-12-17T05:05:37.915Z,99540.16
2022-12-17T05:08:23.350Z,99552.78
2022-12-17T05:11:08.368Z,99554.69
2022-12-17T05:13:53.151Z,99568.53
2022-12-17T05:16:38.515Z,99563.13
2022-12-17T05:19:23.369Z,99556.22
2022-12-17T05:22:08.861Z,99559.06
2022-12-17T05:24:53.678Z,99561.00
2022-12-17T05:27:38.820Z,99549.66
2022-12-17T05:30:24.536Z,99559.78
2022-12-17T05:33:20.141Z,99578.38
2022-12-17T05:36:15.884Z,99582.06
2022-12-17T05:39:00.765Z,99593.09
2022-12-17T05:41:45.627Z,99597.63
2022-12-17T05:44:30.342Z,99604.88
2022-12-17T05:47:15.648Z,99601.69
2022-12-17T05:50:00.641Z,99612.16
2022-12-17T05:52:46.073Z,99616.50
2022-12-17T05:55:31.474Z,99623.22
2022-12-17T05:58:24.627Z,99646.09
2022-12-17T06:01:18.151Z,99643.75
2022-12-17T06:04:03.424Z,99670.72
2022-12-17T06:06:48.464Z,99664.22
2022-12-17T06:09:33.554Z,99671.97
2022-12-17T06:12:19.221Z,99672.09
2022-12-17T06:15:04.063Z,99677.28
2022-12-17T06:17:49.575Z,99679.72
2022-12-17T06:20:34.766Z,99688.13
2022-12-17T06:23:29.601Z,99693.31
2022-12-17T06:26:15.361Z,99704.56
2022-12-17T06:29:01.831Z,99702.63
2022-12-17T06:31:47.223Z,99716.22
2022-12-17T06:34:32.482Z,99707.38
2022-12-17T06:37:17.987Z,99712.44
2022-12-17T06:40:02.744Z,99721.69
2022-12-17T06:42:47.525Z,99728.94
2022-12-17T06:45:32.562Z,99719.56
2022-12-17T06:48:24.591Z,99723.78
2022-12-17T06:51:13.230Z,99717.16
2022-12-17T06:53:59.313Z,99711.38
2022-12-17T06:56:44.665Z,99712.94
2022-12-17T06:59:29.857Z,99703.34
2022-12-17T07:02:14.986Z,99700.78
2022-12-17T07:04:59.942Z,99700.84
2022-12-17T07:07:45.247Z,99710.50
2022-12-17T07:10:30.096Z,99707.47
2022-12-17T07:13:22.923Z,99714.22
2022-12-17T07:16:08.015Z,99715.69
2022-12-17T07:18:53.063Z,99709.56
2022-12-17T07:21:38.365Z,99715.59
2022-12-17T07:24:23.697Z,99708.72
2022-12-17T07:27:08.673Z,99708.84
2022-12-17T07:29:53.537Z,99704.81
2022-12-17T07:32:38.449Z,99700.72
2022-12-17T07:35:23.773Z,99707.38
2022-12-17T07:38:08.586Z,99700.00
2022-12-17T07:40:53.524Z,99710.78
2022-12-17T07:43:38.679Z,99715.69
2022-12-17T07:46:23.851Z,99720.84
2022-12-17T07:49:08.929Z,99717.56
2022-12-17T07:51:53.899Z,99723.06
2022-12-17T07:54:38.811Z,99716.34
2022-12-17T07:57:23.605Z,99716.34
2022-12-17T08:00:08.553Z,99711.50
2022-12-17T08:02:53.559Z,99714.34
2022-12-17T08:05:38.770Z,99716.47
2022-12-17T08:08:30.226Z,99707.28
2022-12-17T08:11:15.465Z,99714.09
2022-12-17T08:14:00.201Z,99725.38
2022-12-17T08:16:45.284Z,99736.72
2022-12-17T08:19:30.398Z,99736.59
2022-12-17T08:22:15.602Z,99725.88
2022-12-17T08:25:00.817Z,99721.34
2022-12-17T08:27:46.232Z,99724.03
2022-12-17T08:30:31.398Z,99734.06
2022-12-17T08:33:22.054Z,99743.00
2022-12-17T08:36:15.522Z,99733.22
2022-12-17T08:39:01.529Z,99733.34
2022-12-17T08:41:51.100Z,99735.88
2022-12-17T08:44:39.061Z,99740.69
2022-12-17T08:47:23.753Z,99733.31
2022-12-17T08:50:08.664Z,99745.41
2022-12-17T08:52:53.592Z,99752.06
2022-12-17T08:55:39.012Z,99758.53
2022-12-17T08:58:23.766Z,99767.63
2022-12-17T09:01:09.049Z,99784.38
2022-12-17T09:03:54.340Z,99794.81
2022-12-17T09:06:39.676Z,99795.69
2022-12-17T09:09:25.132Z,99799.22
2022-12-17T09:12:10.377Z,99799.97
2022-12-17T09:14:55.189Z,99813.03
2022-12-17T09:17:40.536Z,99819.78
2022-12-17T09:20:29.244Z,99837.31
2022-12-17T09:23:14.676Z,99833.88
2022-12-17T09:25:59.478Z,99844.78
2022-12-17T09:28:44.291Z,99865.16
2022-12-17T09:31:35.359Z,99873.38
2022-12-17T09:34:22.269Z,99882.94
2022-12-17T09:37:07.176Z,99894.72
2022-12-17T09:39:52.575Z,99904.91
2022-12-17T09:42:51.781Z,99910.00
2022-12-17T09:46:01.970Z,99915.78
2022-12-17T09:49:18.504Z,99920.16
2022-12-17T09:52:03.788Z,99929.47
2022-12-17T09:55:01.242Z,99954.06
2022-12-17T09:57:51.227Z,99971.78
2022-12-17T10:00:43.776Z,99984.38
2022-12-17T10:03:41.768Z,100009.19
2022-12-17T10:06:40.832Z,100020.88
2022-12-17T10:09:32.306Z,100030.94
2022-12-17T10:12:38.237Z,100047.56
2022-12-17T10:15:25.297Z,100047.09
2022-12-17T10:18:11.060Z,100046.44
2022-12-17T10:21:07.054Z,100045.63
2022-12-17T10:23:53.197Z,100067.22
2022-12-17T10:26:42.349Z,100058.31
2022-12-17T10:29:47.318Z,100073.25
2022-12-17T10:32:33.506Z,100074.00
2022-12-17T10:35:21.312Z,100072.84
2022-12-17T10:38:06.640Z,100071.38
2022-12-17T10:40:54.422Z,100064.59
2022-12-17T10:43:44.430Z,100064.44
2022-12-17T10:46:29.479Z,100072.31
2022-12-17T10:49:44.081Z,100060.03
2022-12-17T10:52:50.440Z,100053.75
2022-12-17T10:55:43.836Z,100058.84
2022-12-17T10:58:41.985Z,100062.41
2022-12-17T11:01:31.403Z,100061.78
2022-12-17T11:04:17.088Z,100061.19
2022-12-17T11:07:09.120Z,100056.13
2022-12-17T11:09:58.818Z,100058.69
2022-12-17T11:12:56.991Z,100059.22
2022-12-17T11:15:54.233Z,100063.34
2022-12-17T11:18:44.624Z,100052.53
2022-12-17T11:21:34.305Z,100066.69
2022-12-17T11:24:22.980Z,100055.41
2022-12-17T11:27:13.516Z,100051.31
2022-12-17T11:29:58.637Z,100051.16
2022-12-17T11:33:07.368Z,100049.31
2022-12-17T11:36:06.356Z,100047.81
2022-12-17T11:38:57.112Z,100053.50
2022-12-17T11:41:58.246Z,100050.25
2022-12-17T11:44:58.202Z,100042.00
2022-12-17T11:48:05.274Z,100048.84
2022-12-17T11:51:09.130Z,100043.09
2022-12-17T11:54:23.476Z,100045.22
2022-12-17T11:57:26.446Z,100049.41
2022-12-17T12:00:31.580Z,100052.81
2022-12-17T12:03:33.641Z,100063.66
2022-12-17T12:06:20.309Z,100069.38
2022-12-17T12:09:23.303Z,100068.75
2022-12-17T12:12:23.481Z,100076.94
2022-12-17T12:15:30.656Z,100074.28
2022-12-17T12:18:20.611Z,100061.91
2022-12-17T12:21:24.146Z,100059.28
2022-12-17T12:24:22.205Z,100078.69
2022-12-17T12:27:42.354Z,100072.72
2022-12-17T12:30:36.352Z,100058.41
2022-12-17T12:33:41.965Z,100053.19
2022-12-17T12:36:30.618Z,100048.47
2022-12-17T12:39:17.474Z,100047.47
2022-12-17T12:42:29.435Z,100045.75
2022-12-17T12:45:36.424Z,100032.41
2022-12-17T12:48:37.010Z,100033.28
2022-12-17T12:51:33.611Z,100036.03
2022-12-17T12:54:20.925Z,100043.91
2022-12-17T12:57:06.279Z,100041.78
2022-12-17T12:59:55.972Z,100042.19
2022-12-17T13:02:50.254Z,100051.72
2022-12-17T13:05:35.126Z,100047.94
2022-12-17T13:08:08.443Z,100032.03
2022-12-17T13:10:37.165Z,100036.03
2022-12-17T13:13:12.289Z,100037.78
2022-12-17T13:15:45.940Z,100048.72
2022-12-17T13:18:18.183Z,100035.56
2022-12-17T13:20:55.946Z,100032.34
2022-12-17T13:23:41.021Z,100029.19
2022-12-17T13:26:14.248Z,100030.97
2022-12-17T13:28:41.157Z,100031.56
2022-12-17T13:31:19.908Z,100028.31
2022-12-17T13:34:19.911Z,100025.28
2022-12-17T13:36:55.555Z,100027.97
2022-12-17T13:39:32.014Z,100031.53
2022-12-17T13:41:58.639Z,100031.94
2022-12-17T13:44:29.852Z,100025.81
2022-12-17T13:46:56.657Z,100028.31
2022-12-17T13:49:24.606Z,100030.22
2022-12-17T13:52:11.775Z,100037.34
2022-12-17T13:54:38.637Z,100060.09
2022-12-17T13:57:10.825Z,100054.13
2022-12-17T13:59:38.222Z,100060.38
2022-12-17T14:02:04.908Z,100063.78
2022-12-17T14:04:31.941Z,100067.00
2022-12-17T14:07:03.284Z,100059.34
2022-12-17T14:09:39.026Z,100055.47
2022-12-17T14:12:22.205Z,100050.91
2022-12-17T14:14:55.865Z,100047.13
2022-12-17T14:17:25.140Z,100034.84
2022-12-17T14:20:14.687Z,100041.13
2022-12-17T14:22:51.104Z,100042.06
2022-12-17T14:25:21.856Z,100042.06
2022-12-17T14:27:54.492Z,100037.28
2022-12-17T14:31:02.481Z,100032.63
2022-12-17T14:33:34.469Z,100030.72
2022-12-17T14:36:06.349Z,100034.53
2022-12-17T14:38:45.060Z,100032.47
2022-12-17T14:41:33.694Z,100031.09
2022-12-17T14:44:03.421Z,100025.38
2022-12-17T14:46:31.991Z,100028.53
2022-12-17T14:49:00.657Z,100018.59
2022-12-17T14:51:42.178Z,100017.78
2022-12-17T14:54:14.870Z,100009.81
2022-12-17T14:56:42.230Z,100009.91
2022-12-17T14:59:34.170Z,100009.22
2022-12-17T15:02:05.633Z,100004.75
2022-12-17T15:04:32.699Z,100018.50
2022-12-17T15:06:59.673Z,100035.47
2022-12-17T15:09:26.302Z,100043.53
2022-12-17T15:11:52.869Z,100049.50
2022-12-17T15:14:19.395Z,100045.63
2022-12-17T15:16:46.438Z,100051.00
2022-12-17T15:19:13.073Z,100061.03
2022-12-17T15:21:39.902Z,100070.66
2022-12-17T15:24:10.765Z,100080.31
2022-12-17T15:26:37.233Z,100075.19
2022-12-17T15:29:03.763Z,100067.16
2022-12-17T15:31:35.211Z,100073.88
2022-12-17T15:34:02.230Z,100074.50
2022-12-17T15:36:31.814Z,100079.34
2022-12-17T15:38:59.108Z,100073.56
2022-12-17T15:41:44.097Z,100075.72
2022-12-17T15:44:10.471Z,100077.56
2022-12-17T15:46:37.716Z,100075.72
2022-12-17T15:49:04.366Z,100088.97
2022-12-17T15:51:30.927Z,100085.88
2022-12-17T15:53:57.518Z,100087.53
2022-12-17T15:56:26.169Z,100095.34
2022-12-17T15:58:53.059Z,100098.41
2022-12-17T16:01:20.160Z,100101.66
2022-12-17T16:03:47.118Z,100107.25
2022-12-17T16:06:13.768Z,100107.31
2022-12-17T16:08:40.877Z,100111.63
2022-12-17T16:11:11.928Z,100115.03
2022-12-17T16:13:39.213Z,100119.91
2022-12-17T16:16:07.466Z,100124.06
2022-12-17T16:18:36.620Z,100135.34
2022-12-17T16:21:04.769Z,100141.13
2022-12-17T16:23:31.511Z,100145.69
2022-12-17T16:25:59.991Z,100141.84
2022-12-17T16:28:27.590Z,100141.31
2022-12-17T16:31:01.564Z,100146.56
2022-12-17T16:33:35.520Z,100133.63
2022-12-17T16:36:03.603Z,100128.88
2022-12-17T16:38:30.268Z,100123.78
2022-12-17T16:40:59.117Z,100127.31
2022-12-17T16:43:26.951Z,100117.06
2022-12-17T16:45:54.323Z,100109.22
2022-12-17T16:48:21.950Z,100113.34
2022-12-17T16:50:49.456Z,100100.97
2022-12-17T16:53:16.297Z,100096.50
2022-12-17T16:55:48.379Z,100097.94
2022-12-17T16:58:17.088Z,100109.13
2022-12-17T17:00:45.655Z,100111.50
2022-12-17T17:03:12.557Z,100121.47
2022-12-17T17:05:40.654Z,100108.66
2022-12-17T17:08:07.443Z,100106.13
2022-12-17T17:10:36.860Z,100106.81
2022-12-17T17:13:04.066Z,100109.91
2022-12-17T17:15:30.928Z,100128.75
2022-12-17T17:18:01.500Z,100127.53
2022-12-17T17:20:32.286Z,100127.88
2022-12-17T17:22:59.672Z,100107.31
2022-12-17T17:25:38.804Z,100108.25
2022-12-17T17:28:13.093Z,100103.50
2022-12-17T17:30:39.593Z,100102.88
2022-12-17T17:33:06.372Z,100095.00
2022-12-17T17:35:32.849Z,100089.41
2022-12-17T17:37:59.518Z,100095.13
2022-12-17T17:40:26.021Z,100104.47
2022-12-17T17:42:53.281Z,100114.59
2022-12-17T17:45:19.998Z,100099.66
2022-12-17T17:47:46.553Z,100091.41
2022-12-17T17:50:13.151Z,100092.63
2022-12-17T17:52:39.619Z,100086.97
2022-12-17T17:55:06.743Z,100090.22
2022-12-17T17:57:33.297Z,100076.25
2022-12-17T17:59:59.859Z,100075.47
2022-12-17T18:02:26.558Z,100071.81
2022-12-17T18:04:53.260Z,100067.28
2022-12-17T18:07:27.953Z,100063.38
2022-12-17T18:09:55.356Z,100045.88
2022-12-17T18:12:40.956Z,100047.84
2022-12-17T18:15:16.829Z,100052.19
2022-12-17T18:17:46.892Z,100065.13
2022-12-17T18:20:14.336Z,100054.63
2022-12-17T18:22:41.029Z,100048.25
2022-12-17T18:25:07.835Z,100045.97
2022-12-17T18:27:34.372Z,100043.75
2022-12-17T18:30:00.848Z,100057.47
2022-12-17T18:32:27.641Z,100061.31
2022-12-17T18:34:54.306Z,100070.63
2022-12-17T18:37:20.847Z,100080.94
2022-12-17T18:39:48.813Z,100092.75
2022-12-17T18:42:34.200Z,100095.59
2022-12-17T18:45:00.713Z,100103.44
2022-12-17T18:47:27.952Z,100103.78
2022-12-17T18:49:54.445Z,100099.72
2022-12-17T18:52:22.696Z,100122.75
2022-12-17T18:54:49.422Z,100128.47
2022-12-17T18:57:15.971Z,100130.19
2022-12-17T18:59:42.487Z,100138.84
2022-12-17T19:02:13.214Z,100148.13
2022-12-17T19:04:40.876Z,100155.03
2022-12-17T19:07:07.512Z,100155.03
2022-12-17T19:09:37.077Z,100167.59
2022-12-17T19:12:06.425Z,100178.16
2022-12-17T19:14:33.499Z,100191.34
2022-12-17T19:17:00.026Z,100192.88
2022-12-17T19:19:27.009Z,100207.38
2022-12-17T19:22:00.097Z,100209.97
2022-12-17T19:24:27.034Z,100213.09
2022-12-17T19:26:53.581Z,100213.56
2022-12-17T19:29:21.030Z,100216.41
2022-12-17T19:31:48.052Z,100209.50
2022-12-17T19:34:16.957Z,100205.44
2022-12-17T19:36:44.324Z,100212.94
2022-12-17T19:39:13.315Z,100195.75
2022-12-17T19:41:40.168Z,100204.09
2022-12-17T19:44:11.127Z,100208.47
2022-12-17T19:46:37.816Z,100193.28
2022-12-17T19:49:05.129Z,100190.97
2022-12-17T19:51:32.430Z,100194.88
2022-12-17T19:54:03.425Z,100194.63
2022-12-17T19:56:34.594Z,100188.59
2022-12-17T19:59:03.872Z,100198.00
2022-12-17T20:01:36.731Z,100199.25
2022-12-17T20:04:03.918Z,100195.34
2022-12-17T20:06:32.377Z,100197.31
2022-12-17T20:08:59.789Z,100196.03
2022-12-17T20:11:36.148Z,100195.03
2022-12-17T20:14:29.271Z,100193.22
2022-12-17T20:16:58.175Z,100192.66
2022-12-17T20:19:27.580Z,100178.75
2022-12-17T20:21:54.983Z,100179.31
2022-12-17T20:24:27.210Z,100179.47
2022-12-17T20:26:57.445Z,100168.56
2022-12-17T20:29:25.350Z,100167.69
2022-12-17T20:31:53.192Z,100164.28
2022-12-17T20:34:20.434Z,100158.84
2022-12-17T20:36:47.059Z,100166.75
2022-12-17T20:39:13.751Z,100158.66
2022-12-17T20:41:41.113Z,100155.88
2022-12-17T20:44:13.784Z,100152.63
2022-12-17T20:46:41.241Z,100144.28
2022-12-17T20:49:08.134Z,100145.16
2022-12-17T20:51:34.915Z,100148.00
2022-12-17T20:54:02.727Z,100138.00
2022-12-17T20:56:32.197Z,100139.94
2022-12-17T20:59:02.483Z,100134.28
2022-12-17T21:01:31.778Z,100134.63
2022-12-17T21:03:59.565Z,100149.28
2022-12-17T21:06:27.876Z,100154.50
2022-12-17T21:08:55.703Z,100166.03
2022-12-17T21:11:28.330Z,100155.72
2022-12-17T21:13:55.546Z,100147.72
2022-12-17T21:16:25.707Z,100155.88
2022-12-17T21:18:53.041Z,100153.31
2022-12-17T21:21:22.892Z,100156.38
2022-12-17T21:23:50.396Z,100159.59
2022-12-17T21:26:26.391Z,100154.31
2022-12-17T21:28:55.053Z,100158.78
2022-12-17T21:31:30.704Z,100163.69
2022-12-17T21:34:00.652Z,100157.91
2022-12-17T21:36:29.450Z,100172.09
2022-12-17T21:38:56.462Z,100177.88
2022-12-17T21:41:26.575Z,100180.63
2022-12-17T21:43:58.685Z,100185.56
2022-12-17T21:46:27.330Z,100175.25
2022-12-17T21:48:54.640Z,100179.41
2022-12-17T21:51:22.546Z,100186.16
2022-12-17T21:53:56.600Z,100175.25
2022-12-17T21:56:23.878Z,100168.34
2022-12-17T21:58:56.575Z,100160.41
2022-12-17T22:01:26.134Z,100156.97
2022-12-17T22:03:54.617Z,100167.16
2022-12-17T22:06:26.037Z,100176.66
2022-12-17T22:09:01.839Z,100180.47
2022-12-17T22:11:36.581Z,100181.59
2022-12-17T22:14:08.483Z,100178.59
2022-12-17T22:16:42.491Z,100182.88
2022-12-17T22:19:22.134Z,100182.16
2022-12-17T22:21:50.892Z,100178.34
2022-12-17T22:24:21.145Z,100166.91
2022-12-17T22:26:48.433Z,100164.28
2022-12-17T22:29:36.032Z,100159.91
2022-12-17T22:32:20.742Z,100142.22
2022-12-17T22:36:05.537Z,100143.94
2022-12-17T22:41:51.381Z,100135.78
2022-12-17T22:43:42.648Z,100134.19
2022-12-17T22:44:37.200Z,100128.84
2022-12-17T22:46:16.695Z,100126.63
2022-12-17T22:48:43.305Z,100117.38
2022-12-17T22:51:12.748Z,100118.72
2022-12-17T22:53:52.488Z,100108.25
2022-12-17T22:56:34.079Z,100101.03
2022-12-17T22:59:07.304Z,100096.59
2022-12-17T23:01:34.113Z,100087.13
2022-12-17T23:04:02.544Z,100081.06
2022-12-17T23:06:29.253Z,100077.69
2022-12-17T23:08:56.724Z,100067.81
2022-12-17T23:11:25.530Z,100062.44
2022-12-17T23:13:53.239Z,100067.34
2022-12-17T23:16:20.239Z,100075.47
2022-12-17T23:18:48.719Z,100077.28
2022-12-17T23:21:18.229Z,100086.72
2022-12-17T23:23:45.168Z,100095.91
2022-12-17T23:26:15.347Z,100097.84
2022-12-17T23:28:42.702Z,100101.66
2022-12-17T23:31:13.575Z,100114.66
2022-12-17T23:33:40.812Z,100110.34
2022-12-17T23:36:13.350Z,100113.56
2022-12-17T23:38:40.453Z,100108.94
2022-12-17T23:41:13.227Z,100121.56
2022-12-17T23:43:40.640Z,100128.16
2022-12-17T23:46:08.691Z,100133.41
2022-12-17T23:48:42.051Z,100141.66
2022-12-17T23:51:13.342Z,100140.34
2022-12-17T23:53:40.428Z,100150.09
2022-12-17T23:56:13.892Z,100149.50
2022-12-17T23:58:42.536Z,100150.63
